createdAt,value
2023-05-14T00:00:29.074Z,5.53
2023-05-14T00:02:55.606Z,5.55
2023-05-14T00:05:22.520Z,6.15
2023-05-14T00:07:49.230Z,5.90
2023-05-14T00:10:15.553Z,6.43
2023-05-14T00:12:41.920Z,5.43
2023-05-14T00:15:09.171Z,5.55
2023-05-14T00:17:36.354Z,6.78
2023-05-14T00:20:06.968Z,6.90
2023-05-14T00:22:34.904Z,6.07
2023-05-14T00:25:01.309Z,5.93
2023-05-14T00:27:27.670Z,6.43
2023-05-14T00:29:54.460Z,6.57
2023-05-14T00:32:21.002Z,5.80
2023-05-14T00:34:47.467Z,5.68
2023-05-14T00:37:14.126Z,6.60
2023-05-14T00:39:40.470Z,6.20
2023-05-14T00:42:06.974Z,5.72
2023-05-14T00:44:33.709Z,5.18
2023-05-14T00:47:00.678Z,5.90
2023-05-14T00:49:28.515Z,5.63
2023-05-14T00:51:55.672Z,5.97
2023-05-14T00:54:22.638Z,5.95
2023-05-14T00:56:49.184Z,6.00
2023-05-14T00:59:15.902Z,6.07
2023-05-14T01:01:42.548Z,6.68
2023-05-14T01:04:10.836Z,6.18
2023-05-14T01:06:40.311Z,5.32
2023-05-14T01:09:22.523Z,5.88
2023-05-14T01:12:01.072Z,5.70
2023-05-14T01:14:46.071Z,5.68
2023-05-14T01:17:15.725Z,4.93
2023-05-14T01:19:43.914Z,5.75
2023-05-14T01:22:11.252Z,5.40
2023-05-14T01:24:38.006Z,5.75
2023-05-14T01:27:16.935Z,5.60
2023-05-14T01:29:49.583Z,6.15
2023-05-14T01:32:17.686Z,5.53
2023-05-14T01:34:47.146Z,6.10
2023-05-14T01:37:14.191Z,5.80
2023-05-14T01:39:42.231Z,6.07
2023-05-14T01:42:09.498Z,6.45
2023-05-14T01:44:36.930Z,6.05
2023-05-14T01:47:03.515Z,6.53
2023-05-14T01:49:29.988Z,6.80
2023-05-14T01:51:56.356Z,6.25
2023-05-14T01:54:22.686Z,6.07
2023-05-14T01:56:49.009Z,6.57
2023-05-14T01:59:16.274Z,6.22
2023-05-14T02:01:42.654Z,6.55
2023-05-14T02:04:09.154Z,6.10
2023-05-14T02:06:35.908Z,6.95
2023-05-14T02:09:05.049Z,6.45
2023-05-14T02:11:31.390Z,6.13
2023-05-14T02:13:58.081Z,6.63
2023-05-14T02:16:24.464Z,6.85
2023-05-14T02:18:50.895Z,6.57
2023-05-14T02:21:17.725Z,6.20
2023-05-14T02:23:44.187Z,7.43
2023-05-14T02:26:11.004Z,7.35
2023-05-14T02:28:37.892Z,6.50
2023-05-14T02:31:04.326Z,6.97
2023-05-14T02:33:31.219Z,8.07
2023-05-14T02:35:57.722Z,7.35
2023-05-14T02:38:26.740Z,7.03
2023-05-14T02:40:53.123Z,7.07
2023-05-14T02:43:19.529Z,7.00
2023-05-14T02:45:46.168Z,6.85
2023-05-14T02:48:12.546Z,7.60
2023-05-14T02:50:38.981Z,7.93
2023-05-14T02:53:05.704Z,6.50
2023-05-14T02:55:32.574Z,6.63
2023-05-14T02:57:58.947Z,7.70
2023-05-14T03:00:26.136Z,7.25
2023-05-14T03:02:53.075Z,7.57
2023-05-14T03:05:20.190Z,7.22
2023-05-14T03:07:46.987Z,6.88
2023-05-14T03:10:13.342Z,6.82
2023-05-14T03:12:39.732Z,8.05
2023-05-14T03:15:06.832Z,7.35
2023-05-14T03:17:33.180Z,7.30
2023-05-14T03:19:59.532Z,7.18
2023-05-14T03:22:26.611Z,7.18
2023-05-14T03:24:53.022Z,7.10
2023-05-14T03:27:19.379Z,7.28
2023-05-14T03:29:45.991Z,7.32
2023-05-14T03:32:12.518Z,7.45
2023-05-14T03:34:38.921Z,6.68
2023-05-14T03:37:05.722Z,6.40
2023-05-14T03:39:32.475Z,6.90
2023-05-14T03:41:59.047Z,7.47
2023-05-14T03:44:25.560Z,7.35
2023-05-14T03:46:52.409Z,7.75
2023-05-14T03:49:18.818Z,6.40
2023-05-14T03:51:45.198Z,7.20
2023-05-14T03:54:12.051Z,7.32
2023-05-14T03:56:38.807Z,6.38
2023-05-14T03:59:05.182Z,7.15
2023-05-14T04:01:31.926Z,7.25
2023-05-14T04:03:58.358Z,7.28
2023-05-14T04:06:24.732Z,6.82
2023-05-14T04:08:51.525Z,6.68
2023-05-14T04:11:17.882Z,7.63
2023-05-14T04:13:44.214Z,7.32
2023-05-14T04:16:11.167Z,7.40
2023-05-14T04:18:37.573Z,7.57
2023-05-14T04:21:04.084Z,7.85
2023-05-14T04:23:32.166Z,7.07
2023-05-14T04:25:58.932Z,7.55
2023-05-14T04:28:25.561Z,8.05
2023-05-14T04:30:52.845Z,7.55
2023-05-14T04:33:19.169Z,7.53
2023-05-14T04:35:45.938Z,7.68
2023-05-14T04:38:14.413Z,7.80
2023-05-14T04:40:43.617Z,7.25
2023-05-14T04:43:10.947Z,8.25
2023-05-14T04:45:37.384Z,6.82
2023-05-14T04:48:04.632Z,7.45
2023-05-14T04:50:31.782Z,7.57
2023-05-14T04:52:58.154Z,7.50
2023-05-14T04:55:24.534Z,7.57
2023-05-14T04:57:51.476Z,7.72
2023-05-14T05:00:18.148Z,7.80
2023-05-14T05:02:44.654Z,7.30
2023-05-14T05:05:11.698Z,7.47
2023-05-14T05:07:38.054Z,8.63
2023-05-14T05:10:04.812Z,7.55
2023-05-14T05:12:31.622Z,7.75
2023-05-14T05:14:57.964Z,7.90
2023-05-14T05:17:25.161Z,6.57
2023-05-14T05:19:52.517Z,7.93
2023-05-14T05:22:20.443Z,7.20
2023-05-14T05:24:48.061Z,7.07
2023-05-14T05:27:16.481Z,6.97
2023-05-14T05:29:44.837Z,7.10
2023-05-14T05:32:11.198Z,7.32
2023-05-14T05:34:37.676Z,7.38
2023-05-14T05:37:06.244Z,7.10
2023-05-14T05:39:34.676Z,7.45
2023-05-14T05:42:04.918Z,7.03
2023-05-14T05:44:31.465Z,7.57
2023-05-14T05:46:58.073Z,7.18
2023-05-14T05:49:25.091Z,7.13
2023-05-14T05:51:51.750Z,8.05
2023-05-14T05:54:18.120Z,7.68
2023-05-14T05:56:44.472Z,6.63
2023-05-14T05:59:11.389Z,7.18
2023-05-14T06:01:37.926Z,7.72
2023-05-14T06:04:06.150Z,8.00
2023-05-14T06:06:33.273Z,8.15
2023-05-14T06:09:01.642Z,7.40
2023-05-14T06:11:28.951Z,7.05
2023-05-14T06:13:55.363Z,6.78
2023-05-14T06:16:21.784Z,7.15
2023-05-14T06:18:48.864Z,7.15
2023-05-14T06:21:15.656Z,5.57
2023-05-14T06:23:41.996Z,6.60
2023-05-14T06:26:08.330Z,6.95
2023-05-14T06:28:34.880Z,6.78
2023-05-14T06:31:01.252Z,5.68
2023-05-14T06:33:31.252Z,7.15
2023-05-14T06:36:05.220Z,6.22
2023-05-14T06:38:32.236Z,5.77
2023-05-14T06:40:58.676Z,5.80
2023-05-14T06:43:25.941Z,5.53
2023-05-14T06:45:52.456Z,5.70
2023-05-14T06:48:19.527Z,5.38
2023-05-14T06:50:47.413Z,5.93
2023-05-14T06:53:14.457Z,5.57
2023-05-14T06:55:41.154Z,5.70
2023-05-14T06:58:08.488Z,5.43
2023-05-14T07:00:35.341Z,5.82
2023-05-14T07:03:02.468Z,5.22
2023-05-14T07:05:29.013Z,3.85
2023-05-14T07:07:55.442Z,5.45
2023-05-14T07:10:22.673Z,5.07
2023-05-14T07:12:49.669Z,5.03
2023-05-14T07:15:16.105Z,4.28
2023-05-14T07:17:42.859Z,5.40
2023-05-14T07:20:09.747Z,5.28
2023-05-14T07:22:36.106Z,4.97
2023-05-14T07:25:02.891Z,5.18
2023-05-14T07:27:31.182Z,4.88
2023-05-14T07:29:57.521Z,5.07
2023-05-14T07:32:25.066Z,5.20
2023-05-14T07:34:52.207Z,4.93
2023-05-14T07:37:18.838Z,5.43
2023-05-14T07:39:45.213Z,4.97
2023-05-14T07:42:19.407Z,4.95
2023-05-14T07:44:51.859Z,4.80
2023-05-14T07:47:18.732Z,5.32
2023-05-14T07:49:45.074Z,5.25
2023-05-14T07:52:11.413Z,5.53
2023-05-14T07:54:38.721Z,5.10
2023-05-14T07:57:05.216Z,4.85
2023-05-14T07:59:31.994Z,5.50
2023-05-14T08:01:58.843Z,4.72
2023-05-14T08:04:25.326Z,5.88
2023-05-14T08:06:51.786Z,4.95
2023-05-14T08:09:18.494Z,5.85
2023-05-14T08:11:44.834Z,5.22
2023-05-14T08:14:11.170Z,5.68
2023-05-14T08:16:38.945Z,4.80
2023-05-14T08:19:05.533Z,5.15
2023-05-14T08:21:32.854Z,4.90
2023-05-14T08:23:59.333Z,4.78
2023-05-14T08:26:25.783Z,5.70
2023-05-14T08:28:54.072Z,5.05
2023-05-14T08:31:20.987Z,4.68
2023-05-14T08:33:47.419Z,4.75
2023-05-14T08:36:14.437Z,5.32
2023-05-14T08:38:41.957Z,5.97
2023-05-14T08:41:09.040Z,5.85
2023-05-14T08:44:07.016Z,5.10
2023-05-14T08:46:34.034Z,4.65
2023-05-14T08:49:17.182Z,4.80
2023-05-14T08:51:46.995Z,4.57
2023-05-14T08:54:18.556Z,5.35
2023-05-14T08:56:50.517Z,5.28
2023-05-14T08:59:18.475Z,4.20
2023-05-14T09:01:49.176Z,4.13
2023-05-14T09:04:19.372Z,7.85
2023-05-14T09:06:49.252Z,4.50
2023-05-14T09:09:16.182Z,3.78
2023-05-14T09:11:46.386Z,3.72
2023-05-14T09:14:12.816Z,4.10
2023-05-14T09:16:41.702Z,3.58
2023-05-14T09:19:08.878Z,3.90
2023-05-14T09:21:35.643Z,4.13
2023-05-14T09:24:01.982Z,4.03
2023-05-14T09:26:31.661Z,4.10
2023-05-14T09:29:05.405Z,4.50
2023-05-14T09:31:33.480Z,3.67
2023-05-14T09:34:00.719Z,4.00
2023-05-14T09:36:28.043Z,3.88
2023-05-14T09:38:57.803Z,3.67
2023-05-14T09:41:24.549Z,3.72
2023-05-14T09:43:51.863Z,3.15
2023-05-14T09:46:18.496Z,3.55
2023-05-14T09:48:45.951Z,3.22
2023-05-14T09:51:13.854Z,3.65
2023-05-14T09:53:41.210Z,3.78
2023-05-14T09:56:07.643Z,3.70
2023-05-14T09:58:34.418Z,3.70
2023-05-14T10:01:02.624Z,3.40
2023-05-14T10:03:30.624Z,3.97
2023-05-14T10:06:04.596Z,3.67
2023-05-14T10:08:34.808Z,3.65
2023-05-14T10:11:06.693Z,3.50
2023-05-14T10:13:39.163Z,3.45
2023-05-14T10:16:16.891Z,3.30
2023-05-14T10:18:48.393Z,3.33
2023-05-14T10:21:17.546Z,3.33
2023-05-14T10:23:44.649Z,3.17
2023-05-14T10:26:11.223Z,3.63
2023-05-14T10:28:37.804Z,3.30
2023-05-14T10:31:04.499Z,3.03
2023-05-14T10:33:30.930Z,3.30
2023-05-14T10:36:01.272Z,3.17
2023-05-14T10:38:29.791Z,3.15
2023-05-14T10:40:58.940Z,2.85
2023-05-14T10:43:27.976Z,3.22
2023-05-14T10:45:55.653Z,2.97
2023-05-14T10:48:22.222Z,3.63
2023-05-14T10:50:51.175Z,2.97
2023-05-14T10:53:18.065Z,2.80
2023-05-14T10:55:45.202Z,2.80
2023-05-14T10:58:12.240Z,2.50
2023-05-14T11:00:39.799Z,2.50
2023-05-14T11:03:07.211Z,2.60
2023-05-14T11:05:35.857Z,3.10
2023-05-14T11:08:06.204Z,3.08
2023-05-14T11:10:34.024Z,2.63
2023-05-14T11:13:00.549Z,2.65
2023-05-14T11:15:28.561Z,2.63
2023-05-14T11:17:55.260Z,2.58
2023-05-14T11:20:21.949Z,2.65
2023-05-14T11:22:51.949Z,2.60
2023-05-14T11:25:19.230Z,2.40
2023-05-14T11:27:47.255Z,2.40
2023-05-14T11:30:17.650Z,2.28
2023-05-14T11:32:46.890Z,2.67
2023-05-14T11:35:14.126Z,2.47
2023-05-14T11:37:40.710Z,2.65
2023-05-14T11:40:10.414Z,2.55
2023-05-14T11:42:37.658Z,2.53
2023-05-14T11:45:04.594Z,3.08
2023-05-14T11:47:31.730Z,2.65
2023-05-14T11:50:01.396Z,2.90
2023-05-14T11:52:27.854Z,2.53
2023-05-14T11:54:54.253Z,2.15
2023-05-14T11:57:22.701Z,2.47
2023-05-14T11:59:55.539Z,2.53
2023-05-14T12:02:23.007Z,2.50
2023-05-14T12:04:52.162Z,2.05
2023-05-14T12:07:18.856Z,3.13
2023-05-14T12:09:50.781Z,2.30
2023-05-14T12:12:22.934Z,2.45
2023-05-14T12:14:50.426Z,2.42
2023-05-14T12:17:19.300Z,2.55
2023-05-14T12:19:48.494Z,2.38
2023-05-14T12:22:17.432Z,2.08
2023-05-14T12:24:44.183Z,2.55
2023-05-14T12:27:11.181Z,2.80
2023-05-14T12:29:40.706Z,2.50
2023-05-14T12:32:09.261Z,2.80
2023-05-14T12:34:37.694Z,2.10
2023-05-14T12:37:04.951Z,2.25
2023-05-14T12:39:33.630Z,2.10
2023-05-14T12:42:00.564Z,2.60
2023-05-14T12:44:27.021Z,2.40
2023-05-14T12:46:53.680Z,3.92
2023-05-14T12:49:20.531Z,2.40
2023-05-14T12:51:46.945Z,1.90
2023-05-14T12:54:13.628Z,2.30
2023-05-14T12:56:40.504Z,2.60
2023-05-14T12:59:06.831Z,2.58
2023-05-14T13:01:33.635Z,2.60
2023-05-14T13:04:00.180Z,2.88
2023-05-14T13:06:26.677Z,4.05
2023-05-14T13:08:53.656Z,3.15
2023-05-14T13:11:20.000Z,2.50
2023-05-14T13:13:46.371Z,2.60
2023-05-14T13:16:17.163Z,2.90
2023-05-14T13:18:43.630Z,2.33
2023-05-14T13:21:10.074Z,2.20
2023-05-14T13:23:36.493Z,2.10
2023-05-14T13:26:02.950Z,2.10
2023-05-14T13:28:29.329Z,2.30
2023-05-14T13:31:09.242Z,2.22
2023-05-14T13:33:37.412Z,2.25
2023-05-14T13:36:04.495Z,2.22
2023-05-14T13:38:31.398Z,2.30
2023-05-14T13:41:01.719Z,2.60
2023-05-14T13:43:32.846Z,2.05
2023-05-14T13:45:59.664Z,2.58
2023-05-14T13:48:26.945Z,2.55
2023-05-14T13:50:54.743Z,3.03
2023-05-14T13:53:22.956Z,3.70
2023-05-14T13:55:50.525Z,3.22
2023-05-14T13:58:17.580Z,2.90
2023-05-14T14:00:43.965Z,3.47
2023-05-14T14:03:10.557Z,3.60
2023-05-14T14:05:38.017Z,3.50
2023-05-14T14:08:22.148Z,3.10
2023-05-14T14:10:50.552Z,2.90
2023-05-14T14:13:16.947Z,2.97
2023-05-14T14:15:43.685Z,3.03
2023-05-14T14:18:10.588Z,3.22
2023-05-14T14:20:36.969Z,2.85
2023-05-14T14:23:03.306Z,3.80
2023-05-14T14:25:30.055Z,3.78
2023-05-14T14:27:56.563Z,3.35
2023-05-14T14:30:22.928Z,3.78
2023-05-14T14:32:50.037Z,3.10
2023-05-14T14:35:18.210Z,4.22
2023-05-14T14:37:49.427Z,3.40
2023-05-14T14:40:16.940Z,3.45
2023-05-14T14:42:43.764Z,3.13
2023-05-14T14:45:11.489Z,3.80
2023-05-14T14:47:37.894Z,4.07
2023-05-14T14:50:05.502Z,3.50
2023-05-14T14:52:32.372Z,3.60
2023-05-14T14:54:58.793Z,3.65
2023-05-14T14:57:25.196Z,3.63
2023-05-14T14:59:51.656Z,3.97
2023-05-14T15:02:18.116Z,3.90
2023-05-14T15:04:44.988Z,4.25
2023-05-14T15:07:11.321Z,3.83
2023-05-14T15:09:37.681Z,6.97
2023-05-14T15:12:04.774Z,5.80
2023-05-14T15:14:31.166Z,4.15
2023-05-14T15:16:57.533Z,4.28
2023-05-14T15:19:24.171Z,4.28
2023-05-14T15:21:50.600Z,3.85
2023-05-14T15:24:17.033Z,4.13
2023-05-14T15:26:43.667Z,4.15
2023-05-14T15:29:10.896Z,4.30
2023-05-14T15:31:37.362Z,4.00
2023-05-14T15:34:03.957Z,3.90
2023-05-14T15:36:31.169Z,3.47
2023-05-14T15:38:57.535Z,3.35
2023-05-14T15:41:25.483Z,3.33
2023-05-14T15:43:52.173Z,3.40
2023-05-14T15:46:18.584Z,3.45
2023-05-14T15:48:45.724Z,4.03
2023-05-14T15:51:13.017Z,3.47
2023-05-14T15:53:39.356Z,3.33
2023-05-14T15:56:06.115Z,3.75
2023-05-14T15:58:32.685Z,3.53
2023-05-14T16:00:59.006Z,3.30
2023-05-14T16:03:25.447Z,3.10
2023-05-14T16:05:52.518Z,3.00
2023-05-14T16:08:18.914Z,3.50
2023-05-14T16:10:45.233Z,3.25
2023-05-14T16:13:11.868Z,2.95
2023-05-14T16:15:39.644Z,2.80
2023-05-14T16:18:06.704Z,2.80
2023-05-14T16:20:33.086Z,2.88
2023-05-14T16:22:59.432Z,3.30
2023-05-14T16:25:26.216Z,3.15
2023-05-14T16:27:52.566Z,2.70
2023-05-14T16:30:18.895Z,2.80
2023-05-14T16:32:49.103Z,1.98
2023-05-14T16:35:16.899Z,2.97
2023-05-14T16:37:43.258Z,2.50
2023-05-14T16:40:11.625Z,1.75
2023-05-14T16:42:39.034Z,2.00
2023-05-14T16:45:06.892Z,1.80
2023-05-14T16:47:33.291Z,2.30
2023-05-14T16:49:59.880Z,1.63
2023-05-14T16:52:26.241Z,2.15
2023-05-14T16:54:52.629Z,2.17
2023-05-14T16:57:19.146Z,2.03
2023-05-14T16:59:46.156Z,2.35
2023-05-14T17:02:12.466Z,2.20
2023-05-14T17:04:42.047Z,2.00
2023-05-14T17:07:08.587Z,2.25
2023-05-14T17:09:34.921Z,2.28
2023-05-14T17:12:01.622Z,2.35
2023-05-14T17:14:27.953Z,2.40
2023-05-14T17:16:54.670Z,2.20
2023-05-14T17:19:21.068Z,2.20
2023-05-14T17:21:47.429Z,2.40
2023-05-14T17:24:13.829Z,2.15
2023-05-14T17:26:40.542Z,2.58
2023-05-14T17:29:06.874Z,2.30
2023-05-14T17:31:33.265Z,2.92
2023-05-14T17:34:00.129Z,1.80
2023-05-14T17:36:28.312Z,2.42
2023-05-14T17:38:55.205Z,2.05
2023-05-14T17:41:21.547Z,2.35
2023-05-14T17:43:47.929Z,2.35
2023-05-14T17:46:14.711Z,2.60
2023-05-14T17:48:41.196Z,2.45
2023-05-14T17:51:07.561Z,2.65
2023-05-14T17:53:34.194Z,2.90
2023-05-14T17:56:00.740Z,2.80
2023-05-14T17:58:27.399Z,2.90
2023-05-14T18:00:54.147Z,2.80
2023-05-14T18:03:20.839Z,3.03
2023-05-14T18:05:47.296Z,3.10
2023-05-14T18:08:14.660Z,2.95
2023-05-14T18:10:41.047Z,3.22
2023-05-14T18:13:07.376Z,4.03
2023-05-14T18:15:35.500Z,2.35
2023-05-14T18:18:01.960Z,1.90
2023-05-14T18:20:28.347Z,2.30
2023-05-14T18:22:55.065Z,2.92
2023-05-14T18:25:21.462Z,2.30
2023-05-14T18:27:47.880Z,2.42
2023-05-14T18:30:16.105Z,3.03
2023-05-14T18:32:44.585Z,2.53
2023-05-14T18:35:11.864Z,2.72
2023-05-14T18:37:38.853Z,2.58
2023-05-14T18:40:06.846Z,2.65
2023-05-14T18:42:33.917Z,2.40
2023-05-14T18:45:00.910Z,2.20
2023-05-14T18:47:27.455Z,2.72
2023-05-14T18:49:55.667Z,2.67
2023-05-14T18:52:23.303Z,2.65
2023-05-14T18:54:50.798Z,7.97
2023-05-14T18:57:17.219Z,4.60
2023-05-14T18:59:43.894Z,3.30
2023-05-14T19:02:10.255Z,3.25
2023-05-14T19:04:50.546Z,3.30
2023-05-14T19:07:19.124Z,2.70
2023-05-14T19:09:45.526Z,3.13
2023-05-14T19:12:12.202Z,2.60
2023-05-14T19:14:38.877Z,2.78
2023-05-14T19:17:05.711Z,3.30
2023-05-14T19:19:32.517Z,3.10
2023-05-14T19:21:59.240Z,3.30
2023-05-14T19:24:25.758Z,3.35
2023-05-14T19:26:52.293Z,4.05
2023-05-14T19:29:19.301Z,3.70
2023-05-14T19:31:45.910Z,3.50
2023-05-14T19:34:12.306Z,3.28
2023-05-14T19:36:39.689Z,2.85
2023-05-14T19:39:06.023Z,3.38
2023-05-14T19:41:32.415Z,2.95
2023-05-14T19:43:58.940Z,2.95
2023-05-14T19:46:25.923Z,2.92
2023-05-14T19:48:52.316Z,3.05
2023-05-14T19:51:19.090Z,3.20
2023-05-14T19:53:45.445Z,12.05
2023-05-14T19:56:11.789Z,16.02
2023-05-14T19:58:38.517Z,5.82
2023-05-14T20:01:04.908Z,3.60
2023-05-14T20:03:32.135Z,2.85
2023-05-14T20:05:59.011Z,3.30
2023-05-14T20:08:25.395Z,3.35
2023-05-14T20:10:51.850Z,3.42
2023-05-14T20:13:18.734Z,3.60
2023-05-14T20:15:46.471Z,3.40
2023-05-14T20:18:12.940Z,3.40
2023-05-14T20:20:39.943Z,3.00
2023-05-14T20:23:06.297Z,2.95
2023-05-14T20:25:33.282Z,3.00
2023-05-14T20:28:03.326Z,3.35
2023-05-14T20:30:29.712Z,2.95
2023-05-14T20:32:56.414Z,2.97
2023-05-14T20:35:23.329Z,2.88
2023-05-14T20:37:49.958Z,4.28
2023-05-14T20:40:16.396Z,3.45
2023-05-14T20:42:43.638Z,3.10
2023-05-14T20:45:10.579Z,3.42
2023-05-14T20:47:37.179Z,3.00
2023-05-14T20:50:04.971Z,3.17
2023-05-14T20:52:31.407Z,3.50
2023-05-14T20:54:59.411Z,2.45
2023-05-14T20:57:28.483Z,2.88
2023-05-14T20:59:54.936Z,3.63
2023-05-14T21:02:21.524Z,3.00
2023-05-14T21:04:48.338Z,2.80
2023-05-14T21:07:14.707Z,2.25
2023-05-14T21:09:41.107Z,2.78
2023-05-14T21:12:08.801Z,2.58
2023-05-14T21:14:35.191Z,2.90
2023-05-14T21:17:01.550Z,2.88
2023-05-14T21:19:28.165Z,2.83
2023-05-14T21:21:54.472Z,3.42
2023-05-14T21:24:20.790Z,2.75
2023-05-14T21:26:47.591Z,3.10
2023-05-14T21:29:13.976Z,3.00
2023-05-14T21:31:40.719Z,2.47
2023-05-14T21:34:07.435Z,2.70
2023-05-14T21:36:33.818Z,2.65
2023-05-14T21:39:00.254Z,3.15
2023-05-14T21:41:27.038Z,2.88
2023-05-14T21:43:53.693Z,3.08
2023-05-14T21:46:20.216Z,3.20
2023-05-14T21:48:47.156Z,2.83
2023-05-14T21:51:13.737Z,2.97
2023-05-14T21:53:40.103Z,2.83
2023-05-14T21:56:08.487Z,3.33
2023-05-14T21:58:35.710Z,3.35
2023-05-14T22:01:02.093Z,3.13
2023-05-14T22:03:29.164Z,2.70
2023-05-14T22:05:56.141Z,2.60
2023-05-14T22:08:22.661Z,2.67
2023-05-14T22:10:49.016Z,2.70
2023-05-14T22:13:15.404Z,3.00
2023-05-14T22:15:41.782Z,2.70
2023-05-14T22:18:09.311Z,2.53
2023-05-14T22:20:35.665Z,2.78
2023-05-14T22:23:01.984Z,2.95
2023-05-14T22:25:28.695Z,3.13
2023-05-14T22:27:55.098Z,3.58
2023-05-14T22:30:21.542Z,3.60
2023-05-14T22:32:48.318Z,2.83
2023-05-14T22:35:14.765Z,3.25
2023-05-14T22:37:41.145Z,3.40
2023-05-14T22:40:10.043Z,3.60
2023-05-14T22:42:36.439Z,2.85
2023-05-14T22:45:02.961Z,2.92
2023-05-14T22:47:29.947Z,3.30
2023-05-14T22:49:56.316Z,2.80
2023-05-14T22:52:22.695Z,3.00
2023-05-14T22:54:52.218Z,2.95
2023-05-14T22:57:18.656Z,2.65
2023-05-14T22:59:45.051Z,3.28
2023-05-14T23:02:12.075Z,3.20
2023-05-14T23:04:38.514Z,3.17
2023-05-14T23:07:04.893Z,3.45
2023-05-14T23:09:31.754Z,2.70
2023-05-14T23:11:58.073Z,3.03
2023-05-14T23:14:24.400Z,2.97
2023-05-14T23:16:51.151Z,2.88
2023-05-14T23:19:17.681Z,2.60
2023-05-14T23:21:44.068Z,2.72
2023-05-14T23:24:10.773Z,2.70
2023-05-14T23:26:37.127Z,2.80
2023-05-14T23:29:03.458Z,2.65
2023-05-14T23:31:30.212Z,2.58
2023-05-14T23:33:56.965Z,2.63
2023-05-14T23:36:23.377Z,2.50
2023-05-14T23:38:50.590Z,2.42
2023-05-14T23:41:16.939Z,2.33
2023-05-14T23:43:43.257Z,2.60
2023-05-14T23:46:10.232Z,2.35
2023-05-14T23:48:36.810Z,2.65
2023-05-14T23:51:03.222Z,2.45
2023-05-14T23:53:29.939Z,2.80
2023-05-14T23:55:56.475Z,2.95
2023-05-14T23:58:22.840Z,2.65
